sensor_id;sensor_type;location;lat;lon;timestamp;P1;durP1;ratioP1;P2;durP2;ratioP2
21905;SDS011;11117;48.644;9.006;2023-04-07T00:02:01;15.30;;;9.77;;
21905;SDS011;11117;48.644;9.006;2023-04-07T00:04:27;17.40;;;9.70;;
21905;SDS011;11117;48.644;9.006;2023-04-07T00:06:53;23.90;;;11.80;;
21905;SDS011;11117;48.644;9.006;2023-04-07T00:09:18;24.10;;;14.07;;
21905;SDS011;11117;48.644;9.006;2023-04-07T00:11:44;16.80;;;10.23;;
21905;SDS011;11117;48.644;9.006;2023-04-07T00:14:09;21.50;;;13.50;;
21905;SDS011;11117;48.644;9.006;2023-04-07T00:16:35;26.23;;;14.90;;
21905;SDS011;11117;48.644;9.006;2023-04-07T00:19:00;18.53;;;11.77;;
21905;SDS011;11117;48.644;9.006;2023-04-07T00:21:26;16.97;;;10.10;;
21905;SDS011;11117;48.644;9.006;2023-04-07T00:23:51;16.70;;;10.60;;
21905;SDS011;11117;48.644;9.006;2023-04-07T00:26:17;17.77;;;10.77;;
21905;SDS011;11117;48.644;9.006;2023-04-07T00:28:43;18.83;;;10.57;;
21905;SDS011;11117;48.644;9.006;2023-04-07T00:31:08;20.13;;;10.53;;
21905;SDS011;11117;48.644;9.006;2023-04-07T00:33:34;18.50;;;11.00;;
21905;SDS011;11117;48.644;9.006;2023-04-07T00:35:59;16.37;;;10.40;;
21905;SDS011;11117;48.644;9.006;2023-04-07T00:38:25;17.07;;;10.40;;
21905;SDS011;11117;48.644;9.006;2023-04-07T00:40:55;17.83;;;10.20;;
21905;SDS011;11117;48.644;9.006;2023-04-07T00:43:22;16.40;;;10.40;;
21905;SDS011;11117;48.644;9.006;2023-04-07T00:45:48;19.97;;;10.53;;
21905;SDS011;11117;48.644;9.006;2023-04-07T00:48:13;15.60;;;10.03;;
21905;SDS011;11117;48.644;9.006;2023-04-07T00:50:39;16.77;;;10.20;;
21905;SDS011;11117;48.644;9.006;2023-04-07T00:53:04;16.93;;;10.43;;
21905;SDS011;11117;48.644;9.006;2023-04-07T00:55:30;17.53;;;10.30;;
21905;SDS011;11117;48.644;9.006;2023-04-07T00:57:56;16.77;;;10.17;;
21905;SDS011;11117;48.644;9.006;2023-04-07T01:00:21;21.23;;;11.07;;
21905;SDS011;11117;48.644;9.006;2023-04-07T01:02:51;14.73;;;9.53;;
21905;SDS011;11117;48.644;9.006;2023-04-07T01:06:08;17.57;;;10.57;;
21905;SDS011;11117;48.644;9.006;2023-04-07T01:08:24;16.33;;;10.10;;
21905;SDS011;11117;48.644;9.006;2023-04-07T01:14:01;18.27;;;10.17;;
21905;SDS011;11117;48.644;9.006;2023-04-07T01:16:45;17.67;;;10.80;;
21905;SDS011;11117;48.644;9.006;2023-04-07T01:22:02;16.57;;;10.20;;
21905;SDS011;11117;48.644;9.006;2023-04-07T01:27:35;16.50;;;10.13;;
21905;SDS011;11117;48.644;9.006;2023-04-07T01:30:04;14.57;;;10.20;;
21905;SDS011;11117;48.644;9.006;2023-04-07T01:32:34;17.30;;;10.30;;
21905;SDS011;11117;48.644;9.006;2023-04-07T01:35:03;16.87;;;9.80;;
21905;SDS011;11117;48.644;9.006;2023-04-07T01:37:30;16.47;;;10.23;;
21905;SDS011;11117;48.644;9.006;2023-04-07T01:39:57;15.63;;;10.43;;
21905;SDS011;11117;48.644;9.006;2023-04-07T01:42:22;15.27;;;10.20;;
21905;SDS011;11117;48.644;9.006;2023-04-07T01:44:51;18.27;;;10.57;;
21905;SDS011;11117;48.644;9.006;2023-04-07T01:47:17;15.67;;;10.23;;
21905;SDS011;11117;48.644;9.006;2023-04-07T01:49:43;16.40;;;10.73;;
21905;SDS011;11117;48.644;9.006;2023-04-07T01:52:10;16.77;;;10.73;;
21905;SDS011;11117;48.644;9.006;2023-04-07T01:54:37;22.17;;;11.00;;
21905;SDS011;11117;48.644;9.006;2023-04-07T01:57:03;17.80;;;10.57;;
21905;SDS011;11117;48.644;9.006;2023-04-07T01:59:29;15.77;;;10.10;;
21905;SDS011;11117;48.644;9.006;2023-04-07T02:01:54;19.30;;;10.60;;
21905;SDS011;11117;48.644;9.006;2023-04-07T02:06:58;17.33;;;11.07;;
21905;SDS011;11117;48.644;9.006;2023-04-07T02:09:27;18.13;;;10.87;;
21905;SDS011;11117;48.644;9.006;2023-04-07T02:11:55;14.30;;;9.83;;
21905;SDS011;11117;48.644;9.006;2023-04-07T02:14:24;17.03;;;10.50;;
21905;SDS011;11117;48.644;9.006;2023-04-07T02:16:50;16.90;;;10.37;;
21905;SDS011;11117;48.644;9.006;2023-04-07T02:19:16;17.53;;;10.67;;
21905;SDS011;11117;48.644;9.006;2023-04-07T02:21:42;18.40;;;10.87;;
21905;SDS011;11117;48.644;9.006;2023-04-07T02:24:10;17.07;;;10.87;;
21905;SDS011;11117;48.644;9.006;2023-04-07T02:26:36;20.90;;;11.60;;
21905;SDS011;11117;48.644;9.006;2023-04-07T02:29:04;19.97;;;10.80;;
21905;SDS011;11117;48.644;9.006;2023-04-07T02:31:30;20.33;;;10.57;;
21905;SDS011;11117;48.644;9.006;2023-04-07T02:33:55;16.53;;;10.83;;
21905;SDS011;11117;48.644;9.006;2023-04-07T02:36:21;16.47;;;10.97;;
21905;SDS011;11117;48.644;9.006;2023-04-07T02:38:47;15.93;;;10.97;;
21905;SDS011;11117;48.644;9.006;2023-04-07T02:41:12;18.50;;;11.60;;
21905;SDS011;11117;48.644;9.006;2023-04-07T02:43:38;17.63;;;10.87;;
21905;SDS011;11117;48.644;9.006;2023-04-07T02:46:03;17.40;;;11.70;;
21905;SDS011;11117;48.644;9.006;2023-04-07T02:48:29;18.63;;;11.97;;
21905;SDS011;11117;48.644;9.006;2023-04-07T02:50:55;17.73;;;10.90;;
21905;SDS011;11117;48.644;9.006;2023-04-07T02:53:21;17.93;;;11.50;;
21905;SDS011;11117;48.644;9.006;2023-04-07T02:55:47;21.83;;;11.37;;
21905;SDS011;11117;48.644;9.006;2023-04-07T02:58:12;18.90;;;11.40;;
21905;SDS011;11117;48.644;9.006;2023-04-07T03:00:38;19.73;;;11.73;;
21905;SDS011;11117;48.644;9.006;2023-04-07T03:03:03;19.17;;;11.17;;
21905;SDS011;11117;48.644;9.006;2023-04-07T03:05:29;17.27;;;10.97;;
21905;SDS011;11117;48.644;9.006;2023-04-07T03:07:54;17.87;;;11.23;;
21905;SDS011;11117;48.644;9.006;2023-04-07T03:10:20;20.77;;;11.30;;
21905;SDS011;11117;48.644;9.006;2023-04-07T03:12:45;19.30;;;11.47;;
21905;SDS011;11117;48.644;9.006;2023-04-07T03:15:11;17.40;;;11.13;;
21905;SDS011;11117;48.644;9.006;2023-04-07T03:17:36;17.83;;;11.50;;
21905;SDS011;11117;48.644;9.006;2023-04-07T03:20:02;18.60;;;11.30;;
21905;SDS011;11117;48.644;9.006;2023-04-07T03:22:28;20.17;;;11.73;;
21905;SDS011;11117;48.644;9.006;2023-04-07T03:24:53;18.07;;;12.10;;
21905;SDS011;11117;48.644;9.006;2023-04-07T03:27:19;22.00;;;12.47;;
21905;SDS011;11117;48.644;9.006;2023-04-07T03:29:44;20.10;;;11.93;;
21905;SDS011;11117;48.644;9.006;2023-04-07T03:32:10;22.53;;;12.33;;
21905;SDS011;11117;48.644;9.006;2023-04-07T03:34:36;21.13;;;11.80;;
21905;SDS011;11117;48.644;9.006;2023-04-07T03:37:01;20.73;;;12.63;;
21905;SDS011;11117;48.644;9.006;2023-04-07T03:39:27;19.03;;;12.43;;
21905;SDS011;11117;48.644;9.006;2023-04-07T03:41:52;21.23;;;12.33;;
21905;SDS011;11117;48.644;9.006;2023-04-07T03:44:18;20.83;;;12.80;;
21905;SDS011;11117;48.644;9.006;2023-04-07T03:46:43;18.37;;;11.73;;
21905;SDS011;11117;48.644;9.006;2023-04-07T03:49:09;20.77;;;12.40;;
21905;SDS011;11117;48.644;9.006;2023-04-07T03:51:35;20.27;;;12.60;;
21905;SDS011;11117;48.644;9.006;2023-04-07T03:54:00;18.23;;;12.60;;
21905;SDS011;11117;48.644;9.006;2023-04-07T03:56:26;21.07;;;12.40;;
21905;SDS011;11117;48.644;9.006;2023-04-07T03:58:51;20.77;;;12.70;;
21905;SDS011;11117;48.644;9.006;2023-04-07T04:01:17;23.97;;;12.57;;
21905;SDS011;11117;48.644;9.006;2023-04-07T04:03:43;21.20;;;12.27;;
21905;SDS011;11117;48.644;9.006;2023-04-07T04:06:08;20.77;;;12.43;;
21905;SDS011;11117;48.644;9.006;2023-04-07T04:08:34;22.03;;;12.67;;
21905;SDS011;11117;48.644;9.006;2023-04-07T04:10:59;19.87;;;12.40;;
21905;SDS011;11117;48.644;9.006;2023-04-07T04:13:25;21.27;;;12.70;;
21905;SDS011;11117;48.644;9.006;2023-04-07T04:15:50;22.57;;;13.47;;
21905;SDS011;11117;48.644;9.006;2023-04-07T04:18:16;20.80;;;13.37;;
21905;SDS011;11117;48.644;9.006;2023-04-07T04:20:41;19.80;;;12.20;;
21905;SDS011;11117;48.644;9.006;2023-04-07T04:23:07;21.63;;;12.43;;
21905;SDS011;11117;48.644;9.006;2023-04-07T04:25:33;19.33;;;12.30;;
21905;SDS011;11117;48.644;9.006;2023-04-07T04:27:58;26.13;;;13.67;;
21905;SDS011;11117;48.644;9.006;2023-04-07T04:30:24;19.70;;;12.73;;
21905;SDS011;11117;48.644;9.006;2023-04-07T04:32:49;26.03;;;14.60;;
21905;SDS011;11117;48.644;9.006;2023-04-07T04:35:15;23.97;;;15.30;;
21905;SDS011;11117;48.644;9.006;2023-04-07T04:37:40;21.70;;;14.43;;
21905;SDS011;11117;48.644;9.006;2023-04-07T04:40:06;27.63;;;15.37;;
21905;SDS011;11117;48.644;9.006;2023-04-07T04:42:32;23.67;;;13.93;;
21905;SDS011;11117;48.644;9.006;2023-04-07T04:44:58;24.67;;;13.60;;
21905;SDS011;11117;48.644;9.006;2023-04-07T04:47:24;21.47;;;12.83;;
21905;SDS011;11117;48.644;9.006;2023-04-07T04:49:49;21.73;;;12.63;;
21905;SDS011;11117;48.644;9.006;2023-04-07T04:52:15;21.90;;;13.30;;
21905;SDS011;11117;48.644;9.006;2023-04-07T04:54:40;23.80;;;12.73;;
21905;SDS011;11117;48.644;9.006;2023-04-07T04:57:06;22.23;;;13.87;;
21905;SDS011;11117;48.644;9.006;2023-04-07T04:59:33;22.73;;;13.07;;
21905;SDS011;11117;48.644;9.006;2023-04-07T05:01:58;20.47;;;12.63;;
21905;SDS011;11117;48.644;9.006;2023-04-07T05:04:24;21.80;;;13.00;;
21905;SDS011;11117;48.644;9.006;2023-04-07T05:06:49;24.70;;;14.83;;
21905;SDS011;11117;48.644;9.006;2023-04-07T05:09:15;24.97;;;13.77;;
21905;SDS011;11117;48.644;9.006;2023-04-07T05:11:40;23.60;;;14.00;;
21905;SDS011;11117;48.644;9.006;2023-04-07T05:14:06;24.07;;;14.37;;
21905;SDS011;11117;48.644;9.006;2023-04-07T05:16:32;21.13;;;13.70;;
21905;SDS011;11117;48.644;9.006;2023-04-07T05:18:57;21.40;;;12.97;;
21905;SDS011;11117;48.644;9.006;2023-04-07T05:21:23;22.20;;;13.13;;
21905;SDS011;11117;48.644;9.006;2023-04-07T05:23:48;25.67;;;13.77;;
21905;SDS011;11117;48.644;9.006;2023-04-07T05:26:14;24.67;;;14.47;;
21905;SDS011;11117;48.644;9.006;2023-04-07T05:28:39;22.23;;;14.00;;
21905;SDS011;11117;48.644;9.006;2023-04-07T05:31:05;21.20;;;13.73;;
21905;SDS011;11117;48.644;9.006;2023-04-07T05:33:30;23.47;;;13.43;;
21905;SDS011;11117;48.644;9.006;2023-04-07T05:35:56;24.63;;;13.50;;
21905;SDS011;11117;48.644;9.006;2023-04-07T05:38:22;21.97;;;13.23;;
21905;SDS011;11117;48.644;9.006;2023-04-07T05:40:47;20.57;;;13.20;;
21905;SDS011;11117;48.644;9.006;2023-04-07T05:43:13;21.47;;;13.23;;
21905;SDS011;11117;48.644;9.006;2023-04-07T05:45:39;22.10;;;13.77;;
21905;SDS011;11117;48.644;9.006;2023-04-07T05:48:04;20.13;;;12.73;;
21905;SDS011;11117;48.644;9.006;2023-04-07T05:50:30;20.67;;;12.70;;
21905;SDS011;11117;48.644;9.006;2023-04-07T05:52:55;18.93;;;12.73;;
21905;SDS011;11117;48.644;9.006;2023-04-07T05:55:21;23.33;;;12.97;;
21905;SDS011;11117;48.644;9.006;2023-04-07T05:57:46;21.73;;;12.87;;
21905;SDS011;11117;48.644;9.006;2023-04-07T06:00:12;19.30;;;11.73;;
21905;SDS011;11117;48.644;9.006;2023-04-07T06:02:38;20.77;;;13.03;;
21905;SDS011;11117;48.644;9.006;2023-04-07T06:05:04;23.93;;;13.97;;
21905;SDS011;11117;48.644;9.006;2023-04-07T06:07:30;23.93;;;13.13;;
21905;SDS011;11117;48.644;9.006;2023-04-07T06:09:55;24.77;;;17.40;;
21905;SDS011;11117;48.644;9.006;2023-04-07T06:12:21;21.63;;;13.80;;
21905;SDS011;11117;48.644;9.006;2023-04-07T06:14:51;17.20;;;11.40;;
21905;SDS011;11117;48.644;9.006;2023-04-07T06:17:17;18.80;;;12.03;;
21905;SDS011;11117;48.644;9.006;2023-04-07T06:19:43;27.70;;;15.90;;
21905;SDS011;11117;48.644;9.006;2023-04-07T06:22:08;23.17;;;15.17;;
21905;SDS011;11117;48.644;9.006;2023-04-07T06:24:34;23.23;;;14.17;;
21905;SDS011;11117;48.644;9.006;2023-04-07T06:26:59;20.20;;;13.37;;
21905;SDS011;11117;48.644;9.006;2023-04-07T06:29:25;20.87;;;13.23;;
21905;SDS011;11117;48.644;9.006;2023-04-07T06:31:51;19.20;;;12.53;;
21905;SDS011;11117;48.644;9.006;2023-04-07T06:34:16;20.80;;;12.40;;
21905;SDS011;11117;48.644;9.006;2023-04-07T06:36:42;17.00;;;11.87;;
21905;SDS011;11117;48.644;9.006;2023-04-07T06:39:08;18.10;;;11.97;;
21905;SDS011;11117;48.644;9.006;2023-04-07T06:41:33;19.07;;;11.63;;
21905;SDS011;11117;48.644;9.006;2023-04-07T06:43:59;16.33;;;11.07;;
21905;SDS011;11117;48.644;9.006;2023-04-07T06:46:25;19.03;;;12.10;;
21905;SDS011;11117;48.644;9.006;2023-04-07T06:48:50;19.23;;;11.07;;
21905;SDS011;11117;48.644;9.006;2023-04-07T06:51:16;16.03;;;10.73;;
21905;SDS011;11117;48.644;9.006;2023-04-07T06:53:41;16.67;;;11.00;;
21905;SDS011;11117;48.644;9.006;2023-04-07T06:56:10;18.63;;;10.40;;
21905;SDS011;11117;48.644;9.006;2023-04-07T06:58:36;15.43;;;10.37;;
21905;SDS011;11117;48.644;9.006;2023-04-07T07:01:02;17.07;;;10.00;;
21905;SDS011;11117;48.644;9.006;2023-04-07T07:03:29;15.30;;;10.10;;
21905;SDS011;11117;48.644;9.006;2023-04-07T07:05:55;16.77;;;10.27;;
21905;SDS011;11117;48.644;9.006;2023-04-07T07:08:21;16.23;;;10.40;;
21905;SDS011;11117;48.644;9.006;2023-04-07T07:10:47;14.90;;;9.00;;
21905;SDS011;11117;48.644;9.006;2023-04-07T07:13:13;13.83;;;10.03;;
21905;SDS011;11117;48.644;9.006;2023-04-07T07:15:38;15.27;;;9.63;;
21905;SDS011;11117;48.644;9.006;2023-04-07T07:18:04;14.50;;;9.40;;
21905;SDS011;11117;48.644;9.006;2023-04-07T07:20:29;13.97;;;9.67;;
21905;SDS011;11117;48.644;9.006;2023-04-07T07:22:55;13.60;;;9.37;;
21905;SDS011;11117;48.644;9.006;2023-04-07T07:25:20;15.07;;;9.70;;
21905;SDS011;11117;48.644;9.006;2023-04-07T07:27:46;13.97;;;9.43;;
21905;SDS011;11117;48.644;9.006;2023-04-07T07:30:12;14.00;;;9.03;;
21905;SDS011;11117;48.644;9.006;2023-04-07T07:32:37;14.27;;;8.87;;
21905;SDS011;11117;48.644;9.006;2023-04-07T07:35:03;16.63;;;12.17;;
21905;SDS011;11117;48.644;9.006;2023-04-07T07:37:29;19.43;;;12.97;;
21905;SDS011;11117;48.644;9.006;2023-04-07T07:39:54;24.87;;;13.40;;
21905;SDS011;11117;48.644;9.006;2023-04-07T07:42:20;23.57;;;14.57;;
21905;SDS011;11117;48.644;9.006;2023-04-07T07:44:45;22.27;;;14.30;;
21905;SDS011;11117;48.644;9.006;2023-04-07T07:47:11;19.87;;;13.67;;
21905;SDS011;11117;48.644;9.006;2023-04-07T07:49:36;22.63;;;15.00;;
21905;SDS011;11117;48.644;9.006;2023-04-07T07:52:02;18.27;;;12.73;;
21905;SDS011;11117;48.644;9.006;2023-04-07T07:54:27;17.80;;;11.67;;
21905;SDS011;11117;48.644;9.006;2023-04-07T07:56:53;15.23;;;10.00;;
21905;SDS011;11117;48.644;9.006;2023-04-07T07:59:18;12.20;;;8.60;;
21905;SDS011;11117;48.644;9.006;2023-04-07T08:01:44;12.00;;;8.67;;
21905;SDS011;11117;48.644;9.006;2023-04-07T08:04:11;15.97;;;8.20;;
21905;SDS011;11117;48.644;9.006;2023-04-07T08:06:37;10.07;;;7.57;;
21905;SDS011;11117;48.644;9.006;2023-04-07T08:09:02;11.27;;;7.10;;
21905;SDS011;11117;48.644;9.006;2023-04-07T08:11:31;9.63;;;6.83;;
21905;SDS011;11117;48.644;9.006;2023-04-07T08:13:56;8.87;;;6.50;;
21905;SDS011;11117;48.644;9.006;2023-04-07T08:16:22;10.73;;;6.43;;
21905;SDS011;11117;48.644;9.006;2023-04-07T08:18:48;10.03;;;6.37;;
21905;SDS011;11117;48.644;9.006;2023-04-07T08:21:13;8.70;;;5.70;;
21905;SDS011;11117;48.644;9.006;2023-04-07T08:23:39;15.87;;;6.27;;
21905;SDS011;11117;48.644;9.006;2023-04-07T08:26:04;8.97;;;5.10;;
21905;SDS011;11117;48.644;9.006;2023-04-07T08:28:30;8.07;;;4.30;;
21905;SDS011;11117;48.644;9.006;2023-04-07T08:30:57;11.03;;;6.00;;
21905;SDS011;11117;48.644;9.006;2023-04-07T08:33:26;9.37;;;4.57;;
21905;SDS011;11117;48.644;9.006;2023-04-07T08:36:04;9.53;;;4.50;;
21905;SDS011;11117;48.644;9.006;2023-04-07T08:38:32;8.73;;;4.50;;
21905;SDS011;11117;48.644;9.006;2023-04-07T08:41:17;9.50;;;4.00;;
21905;SDS011;11117;48.644;9.006;2023-04-07T08:43:49;7.40;;;4.73;;
21905;SDS011;11117;48.644;9.006;2023-04-07T08:46:16;9.40;;;4.50;;
21905;SDS011;11117;48.644;9.006;2023-04-07T08:48:45;8.03;;;3.70;;
21905;SDS011;11117;48.644;9.006;2023-04-07T08:51:15;7.43;;;3.43;;
21905;SDS011;11117;48.644;9.006;2023-04-07T08:53:53;8.03;;;3.63;;
21905;SDS011;11117;48.644;9.006;2023-04-07T08:56:43;6.90;;;4.00;;
21905;SDS011;11117;48.644;9.006;2023-04-07T08:59:16;8.17;;;4.20;;
21905;SDS011;11117;48.644;9.006;2023-04-07T09:02:03;7.87;;;3.90;;
21905;SDS011;11117;48.644;9.006;2023-04-07T09:05:02;7.70;;;4.07;;
21905;SDS011;11117;48.644;9.006;2023-04-07T09:07:32;6.93;;;4.10;;
21905;SDS011;11117;48.644;9.006;2023-04-07T09:10:39;7.33;;;4.57;;
21905;SDS011;11117;48.644;9.006;2023-04-07T09:13:35;8.87;;;4.37;;
21905;SDS011;11117;48.644;9.006;2023-04-07T09:16:01;8.10;;;4.30;;
21905;SDS011;11117;48.644;9.006;2023-04-07T09:18:27;8.37;;;3.93;;
21905;SDS011;11117;48.644;9.006;2023-04-07T09:20:53;8.50;;;4.30;;
21905;SDS011;11117;48.644;9.006;2023-04-07T09:25:57;7.30;;;3.57;;
21905;SDS011;11117;48.644;9.006;2023-04-07T09:28:24;6.87;;;3.10;;
21905;SDS011;11117;48.644;9.006;2023-04-07T09:31:02;7.33;;;3.70;;
21905;SDS011;11117;48.644;9.006;2023-04-07T09:33:28;5.60;;;3.23;;
21905;SDS011;11117;48.644;9.006;2023-04-07T09:35:54;8.57;;;4.03;;
21905;SDS011;11117;48.644;9.006;2023-04-07T09:38:20;6.73;;;4.13;;
21905;SDS011;11117;48.644;9.006;2023-04-07T09:40:46;6.00;;;3.20;;
21905;SDS011;11117;48.644;9.006;2023-04-07T09:43:15;7.07;;;3.27;;
21905;SDS011;11117;48.644;9.006;2023-04-07T09:45:42;7.93;;;3.53;;
21905;SDS011;11117;48.644;9.006;2023-04-07T09:48:17;5.87;;;3.47;;
21905;SDS011;11117;48.644;9.006;2023-04-07T09:50:43;5.97;;;3.20;;
21905;SDS011;11117;48.644;9.006;2023-04-07T09:53:09;7.87;;;3.53;;
21905;SDS011;11117;48.644;9.006;2023-04-07T09:55:34;5.40;;;2.80;;
21905;SDS011;11117;48.644;9.006;2023-04-07T09:58:04;8.63;;;3.40;;
21905;SDS011;11117;48.644;9.006;2023-04-07T10:00:30;6.40;;;2.90;;
21905;SDS011;11117;48.644;9.006;2023-04-07T10:02:55;7.03;;;3.10;;
21905;SDS011;11117;48.644;9.006;2023-04-07T10:05:21;6.33;;;3.07;;
21905;SDS011;11117;48.644;9.006;2023-04-07T10:07:48;5.13;;;3.10;;
21905;SDS011;11117;48.644;9.006;2023-04-07T10:10:14;7.90;;;3.10;;
21905;SDS011;11117;48.644;9.006;2023-04-07T10:12:40;8.93;;;3.33;;
21905;SDS011;11117;48.644;9.006;2023-04-07T10:15:06;10.55;;;3.22;;
21905;SDS011;11117;48.644;9.006;2023-04-07T10:17:34;7.60;;;2.80;;
21905;SDS011;11117;48.644;9.006;2023-04-07T10:20:01;73.35;;;12.32;;
21905;SDS011;11117;48.644;9.006;2023-04-07T10:22:31;19.25;;;4.35;;
21905;SDS011;11117;48.644;9.006;2023-04-07T10:25:08;7.28;;;3.30;;
21905;SDS011;11117;48.644;9.006;2023-04-07T10:27:41;7.28;;;2.80;;
21905;SDS011;11117;48.644;9.006;2023-04-07T10:30:12;8.20;;;3.13;;
21905;SDS011;11117;48.644;9.006;2023-04-07T10:32:46;6.35;;;3.00;;
21905;SDS011;11117;48.644;9.006;2023-04-07T10:35:13;7.03;;;2.80;;
21905;SDS011;11117;48.644;9.006;2023-04-07T10:37:39;8.37;;;4.50;;
21905;SDS011;11117;48.644;9.006;2023-04-07T10:45:09;8.63;;;3.20;;
21905;SDS011;11117;48.644;9.006;2023-04-07T10:50:23;7.73;;;3.17;;
21905;SDS011;11117;48.644;9.006;2023-04-07T10:53:09;4.77;;;2.90;;
21905;SDS011;11117;48.644;9.006;2023-04-07T10:55:42;6.30;;;2.90;;
21905;SDS011;11117;48.644;9.006;2023-04-07T11:03:25;7.13;;;2.63;;
21905;SDS011;11117;48.644;9.006;2023-04-07T11:05:52;9.50;;;2.83;;
21905;SDS011;11117;48.644;9.006;2023-04-07T11:08:32;4.73;;;2.43;;
21905;SDS011;11117;48.644;9.006;2023-04-07T11:11:00;4.77;;;2.90;;
21905;SDS011;11117;48.644;9.006;2023-04-07T11:13:26;5.83;;;2.67;;
21905;SDS011;11117;48.644;9.006;2023-04-07T11:15:52;5.33;;;2.50;;
21905;SDS011;11117;48.644;9.006;2023-04-07T11:18:18;6.07;;;2.10;;
21905;SDS011;11117;48.644;9.006;2023-04-07T11:23:21;7.67;;;1.67;;
21905;SDS011;11117;48.644;9.006;2023-04-07T11:25:48;7.33;;;2.97;;
21905;SDS011;11117;48.644;9.006;2023-04-07T11:28:14;5.87;;;2.50;;
21905;SDS011;11117;48.644;9.006;2023-04-07T11:30:43;8.60;;;4.40;;
21905;SDS011;11117;48.644;9.006;2023-04-07T11:33:17;13.53;;;4.00;;
21905;SDS011;11117;48.644;9.006;2023-04-07T11:38:23;25.47;;;4.57;;
21905;SDS011;11117;48.644;9.006;2023-04-07T11:40:51;9.93;;;4.67;;
21905;SDS011;11117;48.644;9.006;2023-04-07T11:43:17;14.63;;;4.93;;
21905;SDS011;11117;48.644;9.006;2023-04-07T11:48:35;7.97;;;3.80;;
21905;SDS011;11117;48.644;9.006;2023-04-07T11:51:02;11.80;;;4.47;;
21905;SDS011;11117;48.644;9.006;2023-04-07T11:53:41;11.47;;;6.07;;
21905;SDS011;11117;48.644;9.006;2023-04-07T11:56:08;15.73;;;6.80;;
21905;SDS011;11117;48.644;9.006;2023-04-07T11:58:35;10.20;;;5.97;;
21905;SDS011;11117;48.644;9.006;2023-04-07T12:01:02;10.03;;;5.23;;
21905;SDS011;11117;48.644;9.006;2023-04-07T12:03:29;10.97;;;5.17;;
21905;SDS011;11117;48.644;9.006;2023-04-07T12:05:54;14.10;;;6.37;;
21905;SDS011;11117;48.644;9.006;2023-04-07T12:08:20;11.43;;;5.50;;
21905;SDS011;11117;48.644;9.006;2023-04-07T12:10:46;12.00;;;4.80;;
21905;SDS011;11117;48.644;9.006;2023-04-07T12:13:12;11.47;;;5.23;;
21905;SDS011;11117;48.644;9.006;2023-04-07T12:15:37;11.87;;;5.33;;
21905;SDS011;11117;48.644;9.006;2023-04-07T12:18:03;14.37;;;6.07;;
21905;SDS011;11117;48.644;9.006;2023-04-07T12:20:29;9.43;;;4.83;;
21905;SDS011;11117;48.644;9.006;2023-04-07T12:22:54;9.53;;;5.00;;
21905;SDS011;11117;48.644;9.006;2023-04-07T12:25:20;11.77;;;6.03;;
21905;SDS011;11117;48.644;9.006;2023-04-07T12:27:45;13.50;;;6.53;;
21905;SDS011;11117;48.644;9.006;2023-04-07T12:30:11;9.77;;;4.80;;
21905;SDS011;11117;48.644;9.006;2023-04-07T12:32:37;9.87;;;5.60;;
21905;SDS011;11117;48.644;9.006;2023-04-07T12:35:04;10.87;;;5.50;;
21905;SDS011;11117;48.644;9.006;2023-04-07T12:37:30;9.30;;;4.80;;
21905;SDS011;11117;48.644;9.006;2023-04-07T12:39:55;9.27;;;4.90;;
21905;SDS011;11117;48.644;9.006;2023-04-07T12:42:21;10.27;;;4.67;;
21905;SDS011;11117;48.644;9.006;2023-04-07T12:44:46;5.87;;;3.40;;
21905;SDS011;11117;48.644;9.006;2023-04-07T12:47:12;8.97;;;3.93;;
21905;SDS011;11117;48.644;9.006;2023-04-07T12:49:37;5.00;;;2.63;;
21905;SDS011;11117;48.644;9.006;2023-04-07T12:52:03;13.07;;;7.57;;
21905;SDS011;11117;48.644;9.006;2023-04-07T12:54:29;13.63;;;4.17;;
21905;SDS011;11117;48.644;9.006;2023-04-07T12:56:54;8.40;;;4.60;;
21905;SDS011;11117;48.644;9.006;2023-04-07T12:59:20;9.70;;;3.97;;
21905;SDS011;11117;48.644;9.006;2023-04-07T13:01:45;10.47;;;4.70;;
21905;SDS011;11117;48.644;9.006;2023-04-07T13:04:11;9.03;;;4.60;;
21905;SDS011;11117;48.644;9.006;2023-04-07T13:06:36;9.17;;;4.80;;
21905;SDS011;11117;48.644;9.006;2023-04-07T13:09:02;8.63;;;4.07;;
21905;SDS011;11117;48.644;9.006;2023-04-07T13:11:28;10.57;;;5.60;;
21905;SDS011;11117;48.644;9.006;2023-04-07T13:13:53;7.60;;;4.47;;
21905;SDS011;11117;48.644;9.006;2023-04-07T13:16:19;9.97;;;4.50;;
21905;SDS011;11117;48.644;9.006;2023-04-07T13:18:44;4.47;;;2.77;;
21905;SDS011;11117;48.644;9.006;2023-04-07T13:21:10;6.67;;;3.67;;
21905;SDS011;11117;48.644;9.006;2023-04-07T13:23:35;6.47;;;3.10;;
21905;SDS011;11117;48.644;9.006;2023-04-07T13:26:01;7.03;;;3.43;;
21905;SDS011;11117;48.644;9.006;2023-04-07T13:28:26;4.90;;;3.30;;
21905;SDS011;11117;48.644;9.006;2023-04-07T13:30:52;7.53;;;3.73;;
21905;SDS011;11117;48.644;9.006;2023-04-07T13:33:17;5.83;;;3.10;;
21905;SDS011;11117;48.644;9.006;2023-04-07T13:35:43;4.87;;;3.03;;
21905;SDS011;11117;48.644;9.006;2023-04-07T13:38:08;7.20;;;4.10;;
21905;SDS011;11117;48.644;9.006;2023-04-07T13:40:34;7.00;;;4.07;;
21905;SDS011;11117;48.644;9.006;2023-04-07T13:42:59;11.17;;;3.50;;
21905;SDS011;11117;48.644;9.006;2023-04-07T13:45:25;7.33;;;3.70;;
21905;SDS011;11117;48.644;9.006;2023-04-07T13:47:51;6.80;;;3.70;;
21905;SDS011;11117;48.644;9.006;2023-04-07T13:50:16;6.20;;;4.20;;
21905;SDS011;11117;48.644;9.006;2023-04-07T13:52:42;9.13;;;3.80;;
21905;SDS011;11117;48.644;9.006;2023-04-07T13:55:08;9.00;;;4.50;;
21905;SDS011;11117;48.644;9.006;2023-04-07T13:57:33;10.43;;;5.67;;
21905;SDS011;11117;48.644;9.006;2023-04-07T13:59:59;9.03;;;5.50;;
21905;SDS011;11117;48.644;9.006;2023-04-07T14:02:25;9.63;;;4.77;;
21905;SDS011;11117;48.644;9.006;2023-04-07T14:04:51;9.63;;;4.17;;
21905;SDS011;11117;48.644;9.006;2023-04-07T14:07:16;7.83;;;3.63;;
21905;SDS011;11117;48.644;9.006;2023-04-07T14:09:42;6.17;;;3.60;;
21905;SDS011;11117;48.644;9.006;2023-04-07T14:12:07;8.67;;;4.27;;
21905;SDS011;11117;48.644;9.006;2023-04-07T14:14:33;10.40;;;5.20;;
21905;SDS011;11117;48.644;9.006;2023-04-07T14:16:59;8.10;;;4.53;;
21905;SDS011;11117;48.644;9.006;2023-04-07T14:19:24;6.83;;;4.50;;
21905;SDS011;11117;48.644;9.006;2023-04-07T14:21:50;6.03;;;4.23;;
21905;SDS011;11117;48.644;9.006;2023-04-07T14:24:16;8.80;;;5.77;;
21905;SDS011;11117;48.644;9.006;2023-04-07T14:26:42;7.60;;;4.73;;
21905;SDS011;11117;48.644;9.006;2023-04-07T14:29:10;9.07;;;4.90;;
21905;SDS011;11117;48.644;9.006;2023-04-07T14:31:36;7.50;;;4.30;;
21905;SDS011;11117;48.644;9.006;2023-04-07T14:34:02;7.03;;;4.47;;
21905;SDS011;11117;48.644;9.006;2023-04-07T14:36:28;9.30;;;4.50;;
21905;SDS011;11117;48.644;9.006;2023-04-07T14:38:55;7.33;;;4.33;;
21905;SDS011;11117;48.644;9.006;2023-04-07T14:41:20;5.53;;;3.77;;
21905;SDS011;11117;48.644;9.006;2023-04-07T14:43:46;7.47;;;4.43;;
21905;SDS011;11117;48.644;9.006;2023-04-07T14:46:12;7.97;;;5.00;;
21905;SDS011;11117;48.644;9.006;2023-04-07T14:48:37;9.60;;;5.60;;
21905;SDS011;11117;48.644;9.006;2023-04-07T14:51:08;10.93;;;5.60;;
21905;SDS011;11117;48.644;9.006;2023-04-07T14:53:34;8.80;;;5.60;;
21905;SDS011;11117;48.644;9.006;2023-04-07T14:56:02;11.20;;;6.63;;
21905;SDS011;11117;48.644;9.006;2023-04-07T14:58:28;12.63;;;6.40;;
21905;SDS011;11117;48.644;9.006;2023-04-07T15:00:54;13.00;;;6.80;;
21905;SDS011;11117;48.644;9.006;2023-04-07T15:03:19;11.07;;;6.70;;
21905;SDS011;11117;48.644;9.006;2023-04-07T15:05:45;11.13;;;6.00;;
21905;SDS011;11117;48.644;9.006;2023-04-07T15:08:10;9.00;;;6.13;;